createdAt,value
2018-05-27T00:03:00.000Z,99234
2018-05-27T00:08:00.000Z,99232
2018-05-27T00:13:00.000Z,99234
2018-05-27T00:18:00.000Z,99220
2018-05-27T00:23:00.000Z,99222
2018-05-27T00:28:00.000Z,99215
2018-05-27T00:33:00.000Z,99225
2018-05-27T00:38:00.000Z,99221
2018-05-27T00:43:00.000Z,99218
2018-05-27T00:48:00.000Z,99209
2018-05-27T00:53:00.000Z,99221
2018-05-27T00:58:00.000Z,99219
2018-05-27T01:03:00.000Z,99207
2018-05-27T01:08:00.000Z,99193
2018-05-27T01:13:00.000Z,99188
2018-05-27T01:18:00.000Z,99180
2018-05-27T01:23:00.000Z,99182
2018-05-27T01:28:00.000Z,99178
2018-05-27T01:33:00.000Z,99172
2018-05-27T01:38:00.000Z,99171
2018-05-27T01:43:00.000Z,99182
2018-05-27T01:48:00.000Z,99181
2018-05-27T01:53:00.000Z,99183
2018-05-27T01:58:00.000Z,99183
2018-05-27T02:03:00.000Z,99183
2018-05-27T02:08:00.000Z,99187
2018-05-27T02:30:00.000Z,99180
2018-05-27T02:35:00.000Z,99180
2018-05-27T02:40:00.000Z,99174
2018-05-27T02:45:00.000Z,99168
2018-05-27T02:50:00.000Z,99168
2018-05-27T02:55:00.000Z,99168
2018-05-27T03:00:00.000Z,99172
2018-05-27T03:05:00.000Z,99169
2018-05-27T03:10:00.000Z,99161
2018-05-27T03:15:00.000Z,99167
2018-05-27T03:20:00.000Z,99164
2018-05-27T03:25:00.000Z,99160
2018-05-27T03:30:00.000Z,99153
2018-05-27T03:35:00.000Z,99149
2018-05-27T03:40:00.000Z,99151
2018-05-27T03:56:00.000Z,99152
2018-05-27T04:07:00.000Z,99168
2018-05-27T04:17:00.000Z,99167
2018-05-27T04:22:00.000Z,99162
2018-05-27T04:27:00.000Z,99166
2018-05-27T04:32:00.000Z,99161
2018-05-27T04:37:00.000Z,99162
2018-05-27T04:42:00.000Z,99167
2018-05-27T04:47:00.000Z,99168
2018-05-27T04:52:00.000Z,99177
2018-05-27T04:57:00.000Z,99171
2018-05-27T05:02:00.000Z,99183
2018-05-27T05:07:00.000Z,99173
2018-05-27T05:12:00.000Z,99168
2018-05-27T05:17:00.000Z,99176
2018-05-27T05:22:00.000Z,99166
2018-05-27T05:27:00.000Z,99174
2018-05-27T05:32:00.000Z,99174
2018-05-27T05:37:00.000Z,99173
2018-05-27T05:42:00.000Z,99184
2018-05-27T05:47:00.000Z,99180
2018-05-27T05:52:00.000Z,99196
2018-05-27T05:57:00.000Z,99194
2018-05-27T06:02:00.000Z,99204
2018-05-27T06:07:00.000Z,99204
2018-05-27T06:12:00.000Z,99212
2018-05-27T06:17:00.000Z,99209
2018-05-27T06:22:00.000Z,99221
2018-05-27T06:27:00.000Z,99224
2018-05-27T06:32:00.000Z,99215
2018-05-27T06:37:00.000Z,99221
2018-05-27T06:43:00.000Z,99213
2018-05-27T06:48:00.000Z,99220
2018-05-27T06:53:00.000Z,99226
2018-05-27T06:58:00.000Z,99233
2018-05-27T07:03:00.000Z,99235
2018-05-27T07:08:00.000Z,99244
2018-05-27T07:13:00.000Z,99241
2018-05-27T07:18:00.000Z,99243
2018-05-27T07:23:00.000Z,99229
2018-05-27T07:28:00.000Z,99238
2018-05-27T07:33:00.000Z,99245
2018-05-27T07:38:00.000Z,99246
2018-05-27T07:43:00.000Z,99244
2018-05-27T07:48:00.000Z,99254
2018-05-27T07:53:00.000Z,99246
2018-05-27T07:58:00.000Z,99259
2018-05-27T08:03:00.000Z,99256
2018-05-27T08:08:00.000Z,99270
2018-05-27T08:13:00.000Z,99273
2018-05-27T08:18:00.000Z,99273
2018-05-27T08:23:00.000Z,99275
2018-05-27T08:28:00.000Z,99268
2018-05-27T08:33:00.000Z,99282
2018-05-27T08:38:00.000Z,99281
2018-05-27T08:43:00.000Z,99277
2018-05-27T08:48:00.000Z,99271
2018-05-27T08:53:00.000Z,99272
2018-05-27T08:58:00.000Z,99273
2018-05-27T09:03:00.000Z,99270
2018-05-27T09:08:00.000Z,99270
2018-05-27T09:13:00.000Z,99272
2018-05-27T09:18:00.000Z,99275
2018-05-27T09:23:00.000Z,99275
2018-05-27T09:28:00.000Z,99282
2018-05-27T09:33:00.000Z,99277
2018-05-27T09:38:00.000Z,99270
2018-05-27T09:43:00.000Z,99267
2018-05-27T09:48:00.000Z,99267
2018-05-27T09:53:00.000Z,99262
2018-05-27T09:58:00.000Z,99261
2018-05-27T10:03:00.000Z,99257
2018-05-27T10:08:00.000Z,99251
2018-05-27T10:13:00.000Z,99257
2018-05-27T10:18:00.000Z,99248
2018-05-27T10:23:00.000Z,99247
2018-05-27T10:28:00.000Z,99246
2018-05-27T10:33:00.000Z,99244
2018-05-27T10:38:00.000Z,99237
2018-05-27T10:43:00.000Z,99227
2018-05-27T10:48:00.000Z,99225
2018-05-27T10:53:00.000Z,99224
2018-05-27T10:58:00.000Z,99219
2018-05-27T11:03:00.000Z,99213
2018-05-27T11:08:00.000Z,99209
2018-05-27T11:13:00.000Z,99198
2018-05-27T11:18:00.000Z,99197
2018-05-27T11:23:00.000Z,99192
2018-05-27T11:28:00.000Z,99188
2018-05-27T11:33:00.000Z,99175
2018-05-27T11:38:00.000Z,99161
2018-05-27T11:43:00.000Z,99161
2018-05-27T11:48:00.000Z,99155
2018-05-27T11:53:00.000Z,99152
2018-05-27T11:58:00.000Z,99146
2018-05-27T12:03:00.000Z,99145
2018-05-27T12:08:00.000Z,99137
2018-05-27T12:13:00.000Z,99122
2018-05-27T12:18:00.000Z,99127
2018-05-27T12:23:00.000Z,99130
2018-05-27T12:28:00.000Z,99119
2018-05-27T12:33:00.000Z,99109
2018-05-27T12:38:00.000Z,99107
2018-05-27T12:44:00.000Z,99100
2018-05-27T12:49:00.000Z,99096
2018-05-27T12:54:00.000Z,99102
2018-05-27T12:59:00.000Z,99093
2018-05-27T13:04:00.000Z,99097
2018-05-27T13:09:00.000Z,99088
2018-05-27T13:14:00.000Z,99082
2018-05-27T13:19:00.000Z,99083
2018-05-27T13:24:00.000Z,99083
2018-05-27T13:29:00.000Z,99091
2018-05-27T13:34:00.000Z,99100
2018-05-27T13:39:00.000Z,99103
2018-05-27T13:44:00.000Z,99092
2018-05-27T13:49:00.000Z,99096
2018-05-27T13:54:00.000Z,99091
2018-05-27T13:59:00.000Z,99093
2018-05-27T14:04:00.000Z,99101
2018-05-27T14:09:00.000Z,99089
2018-05-27T14:14:00.000Z,99086
2018-05-27T14:19:00.000Z,99071
2018-05-27T14:24:00.000Z,99061
2018-05-27T14:29:00.000Z,99065
2018-05-27T14:34:00.000Z,99074
2018-05-27T14:39:00.000Z,99068
2018-05-27T14:44:00.000Z,99070
2018-05-27T14:49:00.000Z,99064
2018-05-27T14:54:00.000Z,99059
2018-05-27T14:59:00.000Z,99063
2018-05-27T15:04:00.000Z,99053
2018-05-27T15:09:00.000Z,99053
2018-05-27T15:14:00.000Z,99045
2018-05-27T15:19:00.000Z,99040
2018-05-27T15:24:00.000Z,99036
2018-05-27T15:29:00.000Z,99027
2018-05-27T15:34:00.000Z,99026
2018-05-27T15:39:00.000Z,99016
2018-05-27T15:44:00.000Z,99013
2018-05-27T15:49:00.000Z,99012
2018-05-27T15:54:00.000Z,99004
2018-05-27T15:59:00.000Z,99015
2018-05-27T16:04:00.000Z,99013
2018-05-27T16:09:00.000Z,99016
2018-05-27T16:14:00.000Z,99013
2018-05-27T16:19:00.000Z,99021
2018-05-27T16:24:00.000Z,99022
2018-05-27T16:29:00.000Z,99021
2018-05-27T16:34:00.000Z,99019
2018-05-27T16:39:00.000Z,99023
2018-05-27T16:44:00.000Z,99031
2018-05-27T16:49:00.000Z,99037
2018-05-27T16:54:00.000Z,99034
2018-05-27T16:59:00.000Z,99038
2018-05-27T17:04:00.000Z,99042
2018-05-27T17:09:00.000Z,99055
2018-05-27T17:14:00.000Z,99051
2018-05-27T17:19:00.000Z,99048
2018-05-27T17:24:00.000Z,99054
2018-05-27T17:29:00.000Z,99049
2018-05-27T17:34:00.000Z,99051
2018-05-27T17:39:00.000Z,99053
2018-05-27T17:44:00.000Z,99051
2018-05-27T17:49:00.000Z,99065
2018-05-27T17:54:00.000Z,99063
2018-05-27T17:59:00.000Z,99073
2018-05-27T18:04:00.000Z,99072
2018-05-27T18:09:00.000Z,99071
2018-05-27T18:14:00.000Z,99059
2018-05-27T18:19:00.000Z,99075
2018-05-27T18:24:00.000Z,99073
2018-05-27T18:29:00.000Z,99068
2018-05-27T18:34:00.000Z,99070
2018-05-27T18:39:00.000Z,99073
2018-05-27T18:44:00.000Z,99078
2018-05-27T18:49:00.000Z,99082
2018-05-27T18:55:00.000Z,99095
2018-05-27T19:00:00.000Z,99098
2018-05-27T19:05:00.000Z,99096
2018-05-27T19:10:00.000Z,99095
2018-05-27T19:15:00.000Z,99099
2018-05-27T19:20:00.000Z,99091
2018-05-27T19:25:00.000Z,99086
2018-05-27T19:30:00.000Z,99087
2018-05-27T19:35:00.000Z,99078
2018-05-27T19:40:00.000Z,99084
2018-05-27T19:45:00.000Z,99083
2018-05-27T19:50:00.000Z,99080
2018-05-27T19:55:00.000Z,99080
2018-05-27T20:00:00.000Z,99086
2018-05-27T20:05:00.000Z,99082
2018-05-27T20:10:00.000Z,99086
2018-05-27T20:15:00.000Z,99086
2018-05-27T20:20:00.000Z,99099
2018-05-27T20:25:00.000Z,99092
2018-05-27T20:30:00.000Z,99110
2018-05-27T20:35:00.000Z,99103
2018-05-27T20:40:00.000Z,99112
2018-05-27T20:45:00.000Z,99107
2018-05-27T20:50:00.000Z,99104
2018-05-27T20:55:00.000Z,99109
2018-05-27T21:00:00.000Z,99109
2018-05-27T21:05:00.000Z,99117
2018-05-27T21:10:00.000Z,99111
2018-05-27T21:15:00.000Z,99118
2018-05-27T21:20:00.000Z,99129
2018-05-27T21:25:00.000Z,99128
2018-05-27T21:30:00.000Z,99128
2018-05-27T21:35:00.000Z,99128
2018-05-27T21:40:00.000Z,99127
2018-05-27T21:45:00.000Z,99124
2018-05-27T21:50:00.000Z,99129
2018-05-27T21:55:00.000Z,99127
2018-05-27T22:00:00.000Z,99116
2018-05-27T22:05:00.000Z,99111
2018-05-27T22:10:00.000Z,99104
2018-05-27T22:15:00.000Z,99101
2018-05-27T22:20:00.000Z,99105
2018-05-27T22:25:00.000Z,99108
2018-05-27T22:30:00.000Z,99098
2018-05-27T22:35:00.000Z,99096
2018-05-27T22:40:00.000Z,99102
2018-05-27T22:45:00.000Z,99099
2018-05-27T22:50:00.000Z,99095
2018-05-27T22:55:00.000Z,99091
2018-05-27T23:00:00.000Z,99090
2018-05-27T23:05:00.000Z,99092
2018-05-27T23:10:00.000Z,99090
2018-05-27T23:15:00.000Z,99084
2018-05-27T23:20:00.000Z,99094
2018-05-27T23:25:00.000Z,99099
2018-05-27T23:30:00.000Z,99094
2018-05-27T23:35:00.000Z,99090
2018-05-27T23:40:00.000Z,99081
2018-05-27T23:45:00.000Z,99079
2018-05-27T23:50:00.000Z,99087
2018-05-27T23:55:00.000Z,99092
